Time;durP1;ratioP1;P1;durP2;ratioP2;P2;SDS_P1;SDS_P2;PMS_P1;PMS_P2;Temp;Humidity;BMP_temperature;BMP_pressure;BME280_temperature;BME280_humidity;BME280_pressure;Samples;Min_cycle;Max_cycle;Signal;HPM_P1;HPM_P2
2022/03/11 00:01:52;;;;;;;11.45;8.65;;;6.90;95.00;;;;;;5092596;28;20028;-77
2022/03/11 00:04:18;;;;;;;15.93;9.35;;;7.00;95.00;;;;;;5091949;28;20020;-77
2022/03/11 00:06:43;;;;;;;12.90;9.07;;;7.00;95.10;;;;;;5092229;28;20131;-77
2022/03/11 00:09:09;;;;;;;18.23;8.68;;;7.00;94.70;;;;;;5092069;28;20020;-77
2022/03/11 00:11:34;;;;;;;14.48;8.05;;;6.90;95.00;;;;;;5091523;28;20027;-77
2022/03/11 00:14:00;;;;;;;15.15;8.27;;;6.90;94.70;;;;;;5092480;28;20016;-76
2022/03/11 00:16:27;;;;;;;12.30;8.43;;;6.90;95.20;;;;;;5092296;28;20482;-77
2022/03/11 00:18:52;;;;;;;18.10;8.13;;;6.90;95.30;;;;;;5091784;28;20097;-76
2022/03/11 00:21:18;;;;;;;11.82;8.10;;;6.90;95.50;;;;;;5092199;28;20479;-77
2022/03/11 00:23:43;;;;;;;12.02;8.60;;;6.90;95.10;;;;;;5095668;28;20020;-77
2022/03/11 00:26:09;;;;;;;16.58;7.93;;;6.90;95.10;;;;;;5095287;28;20391;-77
2022/03/11 00:28:36;;;;;;;15.82;8.50;;;6.80;95.20;;;;;;5096579;28;20063;-76
2022/03/11 00:31:03;;;;;;;14.32;9.15;;;6.80;95.30;;;;;;5096480;28;20028;-77
2022/03/11 00:33:29;;;;;;;16.98;8.43;;;6.80;95.60;;;;;;5095341;28;20066;-77
2022/03/11 00:35:54;;;;;;;16.92;8.80;;;6.70;95.40;;;;;;5096313;28;20040;-77
2022/03/11 00:38:20;;;;;;;14.18;9.05;;;6.60;95.50;;;;;;5095700;28;20480;-77
2022/03/11 00:40:46;;;;;;;15.07;8.65;;;6.70;95.60;;;;;;5095847;28;20028;-76
2022/03/11 00:43:11;;;;;;;15.45;8.45;;;6.70;95.80;;;;;;5095722;28;20032;-78
2022/03/11 00:45:37;;;;;;;11.02;8.00;;;6.70;96.10;;;;;;5096062;28;20106;-78
2022/03/11 00:48:02;;;;;;;9.93;7.70;;;6.70;96.20;;;;;;5095442;28;20502;-76
2022/03/11 00:50:28;;;;;;;20.90;8.75;;;6.70;96.10;;;;;;5095610;28;20024;-76
2022/03/11 00:52:54;;;;;;;12.48;8.00;;;6.60;96.00;;;;;;5095906;28;20052;-76
2022/03/11 00:55:19;;;;;;;15.02;8.30;;;6.60;96.10;;;;;;5109060;28;20019;-78
2022/03/11 00:57:45;;;;;;;16.23;8.35;;;6.50;96.10;;;;;;5109370;28;20388;-77
2022/03/11 01:00:11;;;;;;;14.20;9.13;;;6.50;96.50;;;;;;5095689;28;20028;-77
2022/03/11 01:02:38;;;;;;;20.58;8.93;;;6.50;96.60;;;;;;5097790;28;20430;-76
2022/03/11 01:05:05;;;;;;;14.93;8.73;;;6.50;96.70;;;;;;5107026;28;20024;-77
2022/03/11 01:07:31;;;;;;;10.80;7.88;;;6.40;97.00;;;;;;5109292;28;20091;-76
2022/03/11 01:09:56;;;;;;;13.38;9.40;;;6.40;97.30;;;;;;5100536;28;20101;-77
2022/03/11 01:12:23;;;;;;;12.38;8.15;;;6.40;97.40;;;;;;5110063;28;20035;-76
2022/03/11 01:14:49;;;;;;;14.43;9.02;;;6.30;97.10;;;;;;5095457;28;20081;-76
2022/03/11 01:17:14;;;;;;;15.07;9.32;;;6.30;96.90;;;;;;5095338;28;20387;-76
2022/03/11 01:19:40;;;;;;;14.48;8.52;;;6.30;97.40;;;;;;5095372;28;20438;-76
2022/03/11 01:22:06;;;;;;;14.10;8.95;;;6.30;97.20;;;;;;5094701;28;20054;-75
2022/03/11 01:24:32;;;;;;;12.60;8.02;;;6.30;97.20;;;;;;5095766;28;20020;-76
2022/03/11 01:26:58;;;;;;;14.45;8.88;;;6.30;97.20;;;;;;5095755;28;20028;-76
2022/03/11 01:29:23;;;;;;;12.32;7.80;;;6.30;97.00;;;;;;5094457;28;20026;-76
2022/03/11 01:31:53;;;;;;;11.52;8.40;;;6.30;97.60;;;;;;5095301;28;20498;-77
2022/03/11 01:34:19;;;;;;;13.23;8.38;;;6.20;97.40;;;;;;5094147;28;20035;-77
2022/03/11 01:36:45;;;;;;;12.73;8.32;;;6.20;97.40;;;;;;5094366;28;20050;-76
2022/03/11 01:39:11;;;;;;;12.38;8.55;;;6.20;97.70;;;;;;5094725;28;20032;-77
2022/03/11 01:41:37;;;;;;;13.73;8.30;;;6.20;97.90;;;;;;5095024;28;20046;-76
2022/03/11 01:44:06;;;;;;;18.27;8.82;;;6.20;97.90;;;;;;5094561;28;20024;-76
2022/03/11 01:46:32;;;;;;;13.45;8.52;;;6.20;97.40;;;;;;5094726;28;20039;-77
2022/03/11 01:49:03;;;;;;;12.65;8.85;;;6.10;97.90;;;;;;5094650;28;20024;-76
2022/03/11 01:51:31;;;;;;;11.32;7.47;;;6.10;97.80;;;;;;5094032;28;20082;-77
2022/03/11 01:53:57;;;;;;;13.55;8.73;;;6.10;97.70;;;;;;5094886;28;20043;-76
2022/03/11 01:56:23;;;;;;;15.25;8.55;;;6.10;97.50;;;;;;5094737;28;20454;-77
2022/03/11 01:58:51;;;;;;;14.35;8.55;;;6.10;97.50;;;;;;5094386;28;20051;-77
2022/03/11 02:01:17;;;;;;;18.92;8.95;;;6.20;97.40;;;;;;5094369;28;20102;-78
2022/03/11 02:03:43;;;;;;;13.25;8.57;;;6.10;97.70;;;;;;5094326;28;20036;-77
2022/03/11 02:06:09;;;;;;;16.67;8.60;;;6.10;97.30;;;;;;5093483;28;20388;-77
2022/03/11 02:08:35;;;;;;;13.75;8.98;;;6.10;97.90;;;;;;5094715;28;20035;-77
2022/03/11 02:11:01;;;;;;;13.77;8.73;;;6.10;97.80;;;;;;5093912;28;20027;-76
2022/03/11 02:13:27;;;;;;;16.23;9.25;;;6.10;97.40;;;;;;5093431;28;20071;-76
2022/03/11 02:15:53;;;;;;;11.65;8.80;;;6.10;97.40;;;;;;5094466;28;20024;-76
2022/03/11 02:18:19;;;;;;;15.68;9.38;;;6.10;97.40;;;;;;5093320;28;20028;-77
2022/03/11 02:20:47;;;;;;;12.73;8.73;;;6.10;97.50;;;;;;5094383;28;20020;-77
2022/03/11 02:23:14;;;;;;;12.93;8.10;;;6.10;97.30;;;;;;5094565;28;20032;-75
2022/03/11 02:25:41;;;;;;;11.90;8.18;;;6.10;97.10;;;;;;5093685;28;20073;-77
2022/03/11 02:28:07;;;;;;;13.43;7.78;;;6.20;97.00;;;;;;5093895;28;20070;-77
2022/03/11 02:30:32;;;;;;;16.45;8.20;;;6.10;97.40;;;;;;5094208;28;20554;-77
2022/03/11 02:33:01;;;;;;;13.55;7.97;;;6.10;97.40;;;;;;5093681;28;20111;-77
2022/03/11 02:35:26;;;;;;;12.32;8.73;;;6.20;97.00;;;;;;5094385;28;20367;-76
2022/03/11 02:37:52;;;;;;;19.10;8.40;;;6.10;97.10;;;;;;5093651;28;20032;-77
2022/03/11 02:40:17;;;;;;;13.23;9.70;;;6.10;97.10;;;;;;5093156;28;20031;-77
2022/03/11 02:42:43;;;;;;;12.45;8.35;;;6.10;97.10;;;;;;5093998;28;20028;-76
2022/03/11 02:45:09;;;;;;;12.30;8.70;;;6.10;97.30;;;;;;5087436;28;20024;-77
2022/03/11 02:47:34;;;;;;;12.15;8.45;;;6.00;97.40;;;;;;5072256;28;20041;-77
2022/03/11 02:50:00;;;;;;;10.82;7.97;;;6.10;97.20;;;;;;5073628;28;20052;-77
2022/03/11 02:52:30;;;;;;;17.38;8.98;;;6.10;97.40;;;;;;5073386;28;20024;-77
2022/03/11 02:54:55;;;;;;;18.23;9.13;;;6.00;97.60;;;;;;5073118;28;20028;-76
2022/03/11 02:57:24;;;;;;;11.50;7.90;;;6.00;97.50;;;;;;5075116;28;20035;-77
2022/03/11 02:59:50;;;;;;;12.70;8.40;;;6.00;98.10;;;;;;5089069;28;20016;-77
2022/03/11 03:02:15;;;;;;;16.08;9.05;;;5.90;97.80;;;;;;5072830;28;20025;-77
2022/03/11 03:04:41;;;;;;;12.68;8.20;;;5.90;97.80;;;;;;5073275;28;20024;-77
2022/03/11 03:07:07;;;;;;;14.60;9.52;;;5.90;97.30;;;;;;5083106;28;20064;-77
2022/03/11 03:09:33;;;;;;;14.65;8.50;;;5.90;98.30;;;;;;5077759;28;20449;-76
2022/03/11 03:11:58;;;;;;;11.93;8.38;;;5.90;97.60;;;;;;5073778;28;20054;-77
2022/03/11 03:14:24;;;;;;;15.40;8.95;;;5.90;98.30;;;;;;5077221;28;20025;-76
2022/03/11 03:16:49;;;;;;;14.75;9.52;;;5.90;97.90;;;;;;5073267;28;20020;-77
2022/03/11 03:19:15;;;;;;;14.98;8.13;;;5.90;97.60;;;;;;5073089;28;20093;-76
2022/03/11 03:21:43;;;;;;;12.55;8.45;;;5.90;97.90;;;;;;5072299;28;20021;-77
2022/03/11 03:24:09;;;;;;;17.73;8.57;;;5.80;97.90;;;;;;5072673;28;20028;-76
2022/03/11 03:26:34;;;;;;;11.82;8.80;;;5.80;97.60;;;;;;5072838;28;20028;-76
2022/03/11 03:29:00;;;;;;;13.40;8.77;;;5.90;97.20;;;;;;5072049;28;20082;-75
2022/03/11 03:31:25;;;;;;;12.38;8.40;;;5.80;97.50;;;;;;5072571;28;20430;-76
2022/03/11 03:33:51;;;;;;;17.23;9.27;;;5.80;97.60;;;;;;5072639;28;20023;-77
2022/03/11 03:36:16;;;;;;;13.32;8.25;;;5.80;97.70;;;;;;5071973;28;20028;-76
2022/03/11 03:38:42;;;;;;;11.60;8.90;;;5.80;97.90;;;;;;5072697;28;20483;-76
2022/03/11 03:41:08;;;;;;;12.02;8.63;;;5.80;97.90;;;;;;5072379;28;20578;-76
2022/03/11 03:43:34;;;;;;;13.88;9.10;;;5.80;98.00;;;;;;5072663;28;20021;-77
2022/03/11 03:45:59;;;;;;;14.43;9.07;;;5.80;98.20;;;;;;5072571;28;20049;-76
2022/03/11 03:48:25;;;;;;;14.05;9.32;;;5.70;97.80;;;;;;5071896;28;20044;-77
2022/03/11 03:50:50;;;;;;;16.92;10.02;;;5.70;97.80;;;;;;5071902;28;20021;-76
2022/03/11 03:53:16;;;;;;;15.15;9.48;;;5.50;98.50;;;;;;5072218;28;20032;-76
2022/03/11 03:55:41;;;;;;;14.60;10.00;;;5.50;98.60;;;;;;5072235;28;20073;-77
2022/03/11 03:58:07;;;;;;;13.50;9.25;;;5.50;99.30;;;;;;5071230;28;20102;-77
2022/03/11 04:00:33;;;;;;;16.73;9.15;;;5.50;99.70;;;;;;5072221;28;20032;-77
2022/03/11 04:02:58;;;;;;;13.48;9.52;;;5.50;99.30;;;;;;5072311;28;20036;-77
2022/03/11 04:05:27;;;;;;;14.85;8.82;;;5.40;99.40;;;;;;5071347;28;20137;-77
2022/03/11 04:07:56;;;;;;;16.48;9.07;;;5.40;99.70;;;;;;5072185;28;20052;-77
2022/03/11 04:10:22;;;;;;;14.30;9.15;;;5.40;99.80;;;;;;5072114;28;20031;-76
2022/03/11 04:12:47;;;;;;;17.58;10.32;;;5.50;99.20;;;;;;5071624;28;20107;-76
2022/03/11 04:15:13;;;;;;;17.25;9.38;;;5.40;99.70;;;;;;5071763;28;20028;-76
2022/03/11 04:17:39;;;;;;;15.25;9.45;;;5.40;99.20;;;;;;5071629;28;20031;-77
2022/03/11 04:20:06;;;;;;;14.40;9.25;;;5.40;99.40;;;;;;5071793;28;20384;-77
2022/03/11 04:22:31;;;;;;;19.17;8.95;;;5.30;99.80;;;;;;5071758;28;20031;-76
2022/03/11 04:24:57;;;;;;;12.85;8.73;;;5.30;99.80;;;;;;5071351;28;20443;-76
2022/03/11 04:27:22;;;;;;;12.30;8.80;;;5.30;99.70;;;;;;5073172;28;20037;-76
2022/03/11 04:29:48;;;;;;;14.25;9.15;;;5.30;99.70;;;;;;5072360;28;20070;-76
2022/03/11 04:32:13;;;;;;;14.48;9.30;;;5.30;99.50;;;;;;5073307;28;20020;-76
2022/03/11 04:34:39;;;;;;;13.40;8.95;;;5.30;99.70;;;;;;5072605;28;20097;-76
2022/03/11 04:37:05;;;;;;;19.63;10.25;;;5.20;99.90;;;;;;5082587;28;20158;-77
2022/03/11 04:39:30;;;;;;;13.55;9.35;;;5.20;99.90;;;;;;5090746;28;20024;-77
2022/03/11 04:41:57;;;;;;;11.93;8.20;;;5.20;99.90;;;;;;5092497;28;20498;-77
2022/03/11 04:44:22;;;;;;;16.70;9.23;;;5.20;99.90;;;;;;5092560;28;20085;-77
2022/03/11 04:46:48;;;;;;;17.67;9.65;;;5.20;99.90;;;;;;5091917;28;20028;-77
2022/03/11 04:49:14;;;;;;;14.77;9.40;;;5.20;99.80;;;;;;5092012;28;20028;-77
2022/03/11 04:51:40;;;;;;;15.25;9.65;;;5.20;99.80;;;;;;5091981;28;20032;-77
2022/03/11 04:54:06;;;;;;;12.15;8.63;;;5.20;99.60;;;;;;5091576;28;20380;-76
2022/03/11 04:56:32;;;;;;;18.73;9.38;;;5.20;99.90;;;;;;5092354;28;20028;-77
2022/03/11 04:58:58;;;;;;;15.20;9.18;;;5.20;99.90;;;;;;5091692;28;20032;-76
2022/03/11 05:01:24;;;;;;;13.40;9.35;;;5.20;99.90;;;;;;5097814;28;20032;-77
2022/03/11 05:03:49;;;;;;;13.63;8.50;;;5.10;99.90;;;;;;5093644;28;20112;-76
2022/03/11 05:06:16;;;;;;;14.85;10.27;;;5.10;99.90;;;;;;5091202;28;20044;-76
2022/03/11 05:08:41;;;;;;;16.35;9.35;;;5.10;99.90;;;;;;5091362;28;20028;-76
2022/03/11 05:11:07;;;;;;;12.40;8.73;;;5.10;99.90;;;;;;5098789;28;20042;-78
2022/03/11 05:13:32;;;;;;;16.42;9.23;;;5.10;99.90;;;;;;5097373;28;20032;-77
2022/03/11 05:15:58;;;;;;;15.38;8.73;;;5.10;99.90;;;;;;5107294;28;20495;-79
2022/03/11 05:18:25;;;;;;;17.25;8.88;;;5.10;99.90;;;;;;5101571;28;20035;-78
2022/03/11 05:20:50;;;;;;;11.45;8.57;;;5.10;99.90;;;;;;5094994;28;20077;-77
2022/03/11 05:23:16;;;;;;;11.35;7.93;;;5.10;99.90;;;;;;5095238;28;20028;-77
2022/03/11 05:25:42;;;;;;;16.92;9.13;;;5.00;99.90;;;;;;5095475;28;20540;-77
2022/03/11 05:28:08;;;;;;;14.57;8.27;;;5.00;99.90;;;;;;5094350;28;20094;-76
2022/03/11 05:30:36;;;;;;;18.80;9.38;;;5.10;99.90;;;;;;5095393;28;20460;-77
2022/03/11 05:33:02;;;;;;;19.85;9.65;;;5.10;99.90;;;;;;5095342;28;20038;-77
2022/03/11 05:35:27;;;;;;;15.43;8.90;;;5.10;99.90;;;;;;5094182;28;20028;-77
2022/03/11 05:37:53;;;;;;;13.50;8.65;;;5.10;99.90;;;;;;5095227;28;20123;-78
2022/03/11 05:40:19;;;;;;;16.63;8.68;;;5.00;99.90;;;;;;5094873;28;20031;-77
2022/03/11 05:42:45;;;;;;;19.70;8.77;;;5.00;99.90;;;;;;5095017;28;20028;-78
2022/03/11 05:45:11;;;;;;;14.23;8.57;;;5.00;99.90;;;;;;5094976;28;20024;-77
2022/03/11 05:47:36;;;;;;;14.60;8.60;;;5.00;99.90;;;;;;5094750;28;20032;-77
2022/03/11 05:50:03;;;;;;;13.18;7.97;;;5.00;99.90;;;;;;5094431;28;20024;-77
2022/03/11 05:52:29;;;;;;;13.45;8.05;;;5.00;99.90;;;;;;5094459;28;20518;-76
2022/03/11 05:54:54;;;;;;;15.27;7.53;;;5.00;99.90;;;;;;5093833;28;20177;-77
2022/03/11 05:57:20;;;;;;;12.32;7.97;;;5.00;99.90;;;;;;5093925;28;20061;-77
2022/03/11 05:59:45;;;;;;;16.33;8.32;;;4.90;99.90;;;;;;5095410;28;20069;-77
2022/03/11 06:02:11;;;;;;;13.73;8.52;;;4.90;99.90;;;;;;5094114;28;20031;-76
2022/03/11 06:04:37;;;;;;;13.82;8.43;;;4.90;99.90;;;;;;5094200;28;20016;-76
2022/03/11 06:07:03;;;;;;;12.30;8.05;;;4.90;99.90;;;;;;5094385;28;20399;-76
2022/03/11 06:09:29;;;;;;;14.73;8.07;;;4.90;99.90;;;;;;5094115;28;20066;-77
2022/03/11 06:11:54;;;;;;;14.95;8.73;;;4.90;99.90;;;;;;5093909;28;20047;-77
2022/03/11 06:14:20;;;;;;;15.20;7.80;;;4.90;99.90;;;;;;5094052;28;20482;-74
2022/03/11 06:16:45;;;;;;;17.70;9.80;;;5.00;99.90;;;;;;5094275;28;20032;-77
2022/03/11 06:19:11;;;;;;;11.65;8.02;;;4.90;99.90;;;;;;5093321;28;20073;-76
2022/03/11 06:21:36;;;;;;;16.50;7.88;;;4.90;99.90;;;;;;5093899;28;20020;-77
2022/03/11 06:24:03;;;;;;;17.33;7.90;;;4.90;99.90;;;;;;5093943;28;20028;-77
2022/03/11 06:26:28;;;;;;;12.38;7.88;;;4.90;99.90;;;;;;5093075;28;20525;-76
2022/03/11 06:28:57;;;;;;;11.38;7.43;;;4.90;99.90;;;;;;5094615;28;20035;-74
2022/03/11 06:31:22;;;;;;;16.98;7.90;;;4.90;99.90;;;;;;5092987;28;20472;-76
2022/03/11 06:33:48;;;;;;;12.02;7.45;;;4.90;99.90;;;;;;5093717;28;20138;-78
2022/03/11 06:36:14;;;;;;;12.38;7.90;;;5.00;99.90;;;;;;5093274;28;20016;-75
2022/03/11 06:38:39;;;;;;;13.10;8.50;;;5.00;99.90;;;;;;5093835;28;20122;-76
2022/03/11 06:41:05;;;;;;;11.18;7.57;;;5.00;99.90;;;;;;5080736;28;20047;-75
2022/03/11 06:43:30;;;;;;;10.50;7.72;;;5.10;99.90;;;;;;5071973;28;20032;-76
2022/03/11 06:45:56;;;;;;;13.45;7.78;;;5.10;99.90;;;;;;5071330;28;20025;-77
2022/03/11 06:48:21;;;;;;;25.02;8.07;;;5.10;99.90;;;;;;5071374;28;20036;-76
2022/03/11 06:50:47;;;;;;;14.48;8.15;;;5.10;99.90;;;;;;5071853;28;20029;-75
2022/03/11 06:53:14;;;;;;;10.95;6.93;;;5.20;99.90;;;;;;5070989;28;20025;-76
2022/03/11 06:55:40;;;;;;;10.68;7.15;;;5.20;99.90;;;;;;5071459;28;20461;-77
2022/03/11 06:58:05;;;;;;;14.20;7.38;;;5.30;99.90;;;;;;5071747;28;20067;-77
2022/03/11 07:00:31;;;;;;;14.10;8.57;;;5.30;99.90;;;;;;5071458;28;20423;-76
2022/03/11 07:02:56;;;;;;;12.05;7.80;;;5.30;99.90;;;;;;5074682;28;20182;-77
2022/03/11 07:05:22;;;;;;;15.48;7.82;;;5.40;99.90;;;;;;5071203;28;20040;-77
2022/03/11 07:07:47;;;;;;;13.95;8.35;;;5.50;99.90;;;;;;5074365;28;20060;-78
2022/03/11 07:10:16;;;;;;;28.27;10.23;;;5.50;99.90;;;;;;5072803;28;20012;-77
2022/03/11 07:12:41;;;;;;;15.20;8.95;;;5.60;99.90;;;;;;5072600;28;20039;-77
2022/03/11 07:15:07;;;;;;;10.05;7.40;;;5.70;99.80;;;;;;5071001;28;20017;-77
2022/03/11 07:17:33;;;;;;;14.23;7.75;;;5.70;99.60;;;;;;5071202;28;20031;-77
2022/03/11 07:19:59;;;;;;;12.82;7.50;;;5.80;99.60;;;;;;5072018;28;20013;-77
2022/03/11 07:22:25;;;;;;;12.05;8.05;;;5.90;99.90;;;;;;5072283;28;20485;-77
2022/03/11 07:24:50;;;;;;;14.40;8.43;;;6.00;99.60;;;;;;5075030;28;20029;-76
2022/03/11 07:27:16;;;;;;;20.38;7.63;;;6.10;99.00;;;;;;5071173;28;20044;-75
2022/03/11 07:29:42;;;;;;;12.98;6.90;;;6.10;99.20;;;;;;5071336;28;20013;-75
2022/03/11 07:32:08;;;;;;;14.10;7.72;;;6.20;98.70;;;;;;5070629;28;20031;-77
2022/03/11 07:34:34;;;;;;;12.85;8.57;;;6.30;98.50;;;;;;5070704;28;20017;-78
2022/03/11 07:37:00;;;;;;;16.85;8.10;;;6.40;98.40;;;;;;5073315;28;20028;-79
2022/03/11 07:39:26;;;;;;;14.68;7.57;;;6.50;98.10;;;;;;5070062;28;20021;-77
2022/03/11 07:41:52;;;;;;;12.60;8.02;;;6.60;97.40;;;;;;5070225;28;20476;-78
2022/03/11 07:44:17;;;;;;;21.23;8.23;;;6.60;97.60;;;;;;5070024;28;20034;-78
2022/03/11 07:46:43;;;;;;;15.93;8.95;;;6.80;97.80;;;;;;5070834;28;20029;-79
2022/03/11 07:49:10;;;;;;;14.55;7.82;;;6.90;97.80;;;;;;5071365;28;20036;-78
2022/03/11 07:51:36;;;;;;;12.00;8.23;;;6.80;98.00;;;;;;5072272;28;20088;-76
2022/03/11 07:54:02;;;;;;;15.38;7.78;;;7.00;97.20;;;;;;5073919;28;20024;-78
2022/03/11 07:56:28;;;;;;;13.88;8.70;;;7.10;96.80;;;;;;5074325;28;20036;-77
2022/03/11 07:58:57;;;;;;;21.17;8.32;;;7.10;96.70;;;;;;5072771;28;20028;-78
2022/03/11 08:01:23;;;;;;;12.98;8.25;;;7.10;96.70;;;;;;5072017;28;20032;-77
2022/03/11 08:03:48;;;;;;;13.18;8.45;;;7.30;96.40;;;;;;5071769;28;20021;-76
2022/03/11 08:06:14;;;;;;;19.10;9.93;;;7.30;96.50;;;;;;5071708;28;20055;-77
2022/03/11 08:08:42;;;;;;;9.93;8.02;;;7.30;96.60;;;;;;5071764;28;20115;-77
2022/03/11 08:11:07;;;;;;;17.25;8.52;;;7.40;96.50;;;;;;5086552;28;20043;-77
2022/03/11 08:13:34;;;;;;;21.02;8.90;;;7.50;96.20;;;;;;5092066;28;20024;-77
2022/03/11 08:16:00;;;;;;;13.23;8.00;;;7.50;96.50;;;;;;5092447;28;20024;-77
2022/03/11 08:18:26;;;;;;;16.10;8.63;;;7.70;96.30;;;;;;5091375;28;20377;-80
2022/03/11 08:20:52;;;;;;;16.10;9.18;;;7.70;96.90;;;;;;5092383;28;20028;-78
2022/03/11 08:23:18;;;;;;;12.95;8.55;;;7.80;95.90;;;;;;5091868;28;20020;-81
2022/03/11 08:25:43;;;;;;;14.38;9.18;;;7.80;96.10;;;;;;5093475;28;20039;-81
2022/03/11 08:28:10;;;;;;;19.80;9.45;;;7.90;95.80;;;;;;5095209;28;20028;-84
2022/03/11 08:30:40;;;;;;;18.40;10.10;;;8.00;95.50;;;;;;5094227;28;20052;-77
2022/03/11 08:33:06;;;;;;;21.60;8.77;;;8.00;96.10;;;;;;5093260;28;20030;-78
2022/03/11 08:35:32;;;;;;;19.50;8.88;;;8.00;95.60;;;;;;5092737;28;20024;-80
2022/03/11 08:37:58;;;;;;;18.90;8.80;;;8.10;95.50;;;;;;5091871;28;20028;-79
2022/03/11 08:40:27;;;;;;;15.20;9.55;;;8.20;95.40;;;;;;5091917;28;20016;-77
2022/03/11 08:42:53;;;;;;;20.58;8.65;;;8.30;95.40;;;;;;5092229;28;20078;-77
2022/03/11 08:45:21;;;;;;;13.73;8.95;;;8.30;95.20;;;;;;5077505;28;20119;-77
2022/03/11 08:47:47;;;;;;;18.08;8.93;;;8.40;95.60;;;;;;5076000;28;20101;-79
2022/03/11 08:50:13;;;;;;;20.23;9.15;;;8.50;94.70;;;;;;5075439;28;20039;-79
2022/03/11 08:52:40;;;;;;;25.27;9.45;;;8.60;94.10;;;;;;5075774;28;20020;-79
2022/03/11 08:55:06;;;;;;;24.17;9.32;;;8.70;93.50;;;;;;5076592;28;20021;-80
2022/03/11 08:57:32;;;;;;;15.98;9.52;;;8.70;94.30;;;;;;5075805;28;20039;-80
2022/03/11 08:59:57;;;;;;;20.75;9.38;;;8.80;93.30;;;;;;5075011;28;20463;-80
2022/03/11 09:02:23;;;;;;;17.45;9.25;;;8.90;93.70;;;;;;5075347;28;20134;-79
2022/03/11 09:04:49;;;;;;;20.63;9.57;;;8.90;93.60;;;;;;5076721;28;20024;-79
2022/03/11 09:07:15;;;;;;;25.02;8.98;;;9.00;93.70;;;;;;5076976;28;20044;-79
2022/03/11 09:09:41;;;;;;;17.58;9.52;;;9.10;93.10;;;;;;5075244;28;20119;-79
2022/03/11 09:12:09;;;;;;;21.02;9.88;;;9.10;92.90;;;;;;5077411;28;20016;-78
2022/03/11 09:14:35;;;;;;;19.55;9.93;;;9.20;92.30;;;;;;5075193;28;20344;-79
2022/03/11 09:17:01;;;;;;;13.05;8.52;;;9.30;92.60;;;;;;5075611;28;20103;-80
2022/03/11 09:19:27;;;;;;;18.52;9.63;;;9.30;92.30;;;;;;5093479;28;20476;-80
2022/03/11 09:21:52;;;;;;;14.40;8.88;;;9.30;92.60;;;;;;5095502;28;20024;-81
2022/03/11 09:24:18;;;;;;;17.17;10.20;;;9.40;93.00;;;;;;5096219;28;20020;-81
2022/03/11 09:26:49;;;;;;;15.55;8.98;;;9.50;92.30;;;;;;5095582;28;20539;-81
2022/03/11 09:29:15;;;;;;;21.45;9.73;;;9.50;92.90;;;;;;5095218;28;20032;-80
2022/03/11 09:31:40;;;;;;;18.17;9.90;;;9.60;92.00;;;;;;5087699;28;20375;-81
2022/03/11 09:34:06;;;;;;;16.25;9.95;;;9.70;92.50;;;;;;5076958;28;20052;-82
2022/03/11 09:36:31;;;;;;;17.05;9.82;;;9.70;92.40;;;;;;5081260;28;20020;-81
2022/03/11 09:38:57;;;;;;;19.55;11.32;;;9.80;92.20;;;;;;5078984;28;20021;-82
2022/03/11 09:41:26;;;;;;;16.05;9.55;;;9.90;92.30;;;;;;5084240;28;20038;-79
2022/03/11 09:43:54;;;;;;;17.95;9.82;;;10.00;91.40;;;;;;5085385;28;20048;-81
2022/03/11 09:46:19;;;;;;;22.20;10.10;;;10.00;91.50;;;;;;5076443;28;20040;-81
2022/03/11 09:48:45;;;;;;;21.60;10.63;;;10.10;91.80;;;;;;5074793;28;20098;-81
2022/03/11 09:51:11;;;;;;;18.45;10.98;;;10.20;91.70;;;;;;5075065;28;20028;-82
2022/03/11 09:53:37;;;;;;;24.38;10.05;;;10.20;91.20;;;;;;5076121;28;20021;-81
2022/03/11 09:56:03;;;;;;;30.05;9.93;;;10.30;91.40;;;;;;5075598;28;20480;-80
2022/03/11 09:58:29;;;;;;;12.50;9.52;;;10.40;91.20;;;;;;5074554;28;20032;-80
2022/03/11 10:00:55;;;;;;;17.42;10.30;;;10.40;91.90;;;;;;5075357;28;20031;-79
2022/03/11 10:03:21;;;;;;;23.40;11.23;;;10.50;92.10;;;;;;5074380;28;20036;-79
2022/03/11 10:05:51;;;;;;;20.25;11.48;;;10.50;91.50;;;;;;5074596;28;20040;-79
2022/03/11 10:08:33;;;;;;;37.60;11.45;;;10.60;91.60;;;;;;5073828;28;20109;-79
2022/03/11 10:11:18;;;;;;;25.45;11.60;;;10.70;91.50;;;;;;5074359;28;20024;-79
2022/03/11 10:13:43;;;;;;;20.15;11.35;;;10.70;91.40;;;;;;5075007;28;20032;-79
2022/03/11 10:16:20;;;;;;;19.92;10.63;;;10.80;91.10;;;;;;5056454;28;20028;-79
2022/03/11 10:18:56;;;;;;;17.08;10.25;;;10.90;91.40;;;;;;5074703;28;20158;-80
2022/03/11 10:21:51;;;;;;;20.20;11.52;;;10.90;91.60;;;;;;5087140;28;20491;-79
2022/03/11 10:24:19;;;;;;;19.42;11.18;;;11.00;91.50;;;;;;5077373;28;20392;-80
2022/03/11 10:26:50;;;;;;;26.42;11.52;;;11.10;91.50;;;;;;5075019;28;20062;-80
2022/03/11 10:29:32;;;;;;;16.70;11.55;;;11.20;91.50;;;;;;5074526;28;20027;-81
2022/03/11 10:31:59;;;;;;;21.80;11.95;;;11.30;91.30;;;;;;5091979;28;20076;-80
2022/03/11 10:34:26;;;;;;;23.50;11.85;;;11.30;91.30;;;;;;5096662;28;20468;-80
2022/03/11 10:37:00;;;;;;;17.75;11.35;;;11.40;90.70;;;;;;5094362;28;20059;-80
2022/03/11 10:39:29;;;;;;;29.83;10.80;;;11.50;91.00;;;;;;5093675;28;20036;-81
2022/03/11 10:41:57;;;;;;;15.38;10.65;;;11.60;90.70;;;;;;5094096;28;20073;-80
2022/03/11 10:44:26;;;;;;;25.05;11.55;;;11.60;90.90;;;;;;5094352;28;20411;-81
2022/03/11 10:46:55;;;;;;;19.50;10.88;;;11.70;90.90;;;;;;5094909;28;20032;-81
2022/03/11 10:49:26;;;;;;;20.27;10.77;;;11.70;90.40;;;;;;5093579;28;20024;-77
2022/03/11 10:51:54;;;;;;;15.98;11.50;;;11.80;90.90;;;;;;5093591;28;20020;-80
2022/03/11 10:54:23;;;;;;;20.67;11.52;;;11.90;90.50;;;;;;5093349;28;20032;-78
2022/03/11 10:56:48;;;;;;;17.15;11.52;;;11.90;90.90;;;;;;5093609;28;20541;-79
2022/03/11 10:59:28;;;;;;;20.70;11.90;;;12.00;90.50;;;;;;5073869;28;20036;-78
2022/03/11 11:01:57;;;;;;;21.15;11.88;;;12.00;90.30;;;;;;5072586;28;20468;-81
2022/03/11 11:04:24;;;;;;;18.13;10.93;;;12.10;90.20;;;;;;5074759;28;20077;-77
2022/03/11 11:06:51;;;;;;;23.40;11.20;;;12.20;90.80;;;;;;5091796;28;20135;-78
2022/03/11 11:09:17;;;;;;;16.02;10.38;;;12.20;90.70;;;;;;5093097;28;20099;-81
2022/03/11 11:11:44;;;;;;;18.40;11.70;;;12.20;90.40;;;;;;5075277;28;20085;-77
2022/03/11 11:14:11;;;;;;;23.48;17.88;;;12.30;89.90;;;;;;5071255;28;20009;-78
2022/03/11 11:16:44;;;;;;;21.60;13.73;;;12.30;90.50;;;;;;5073183;28;20129;-77
2022/03/11 11:19:15;;;;;;;21.15;13.23;;;12.40;90.50;;;;;;5072848;28;20054;-76
2022/03/11 11:21:45;;;;;;;;;;;12.40;90.60;;;;;;5073293;28;20036;-76
2022/03/11 11:24:16;;;;;;;16.47;11.07;;;12.50;90.70;;;;;;5072331;28;20326;-77
2022/03/11 11:26:51;;;;;;;24.40;11.73;;;12.60;90.80;;;;;;5072508;28;20344;-76
2022/03/11 11:29:20;;;;;;;16.77;10.73;;;12.70;90.10;;;;;;5073776;28;20606;-78
2022/03/11 11:31:47;;;;;;;17.00;11.23;;;12.80;90.30;;;;;;5074412;28;20032;-78
2022/03/11 11:34:34;;;;;;;19.25;11.55;;;12.80;90.80;;;;;;5071754;28;20040;-79
2022/03/11 11:37:00;;;;;;;18.75;12.00;;;12.90;89.90;;;;;;5071420;28;20043;-80
2022/03/11 11:39:37;;;;;;;14.50;10.73;;;13.00;90.00;;;;;;5077332;28;20375;-80
2022/03/11 11:42:12;;;;;;;14.18;11.00;;;13.10;90.40;;;;;;5070926;28;20498;-79
2022/03/11 11:44:39;;;;;;;15.32;10.65;;;13.20;89.90;;;;;;5071281;28;20035;-80
2022/03/11 11:47:11;;;;;;;21.92;11.18;;;13.30;88.80;;;;;;5073850;28;20032;-80
2022/03/11 11:49:41;;;;;;;15.65;11.50;;;13.30;87.90;;;;;;5073117;28;20032;-79
2022/03/11 11:52:11;;;;;;;29.27;10.47;;;13.40;89.40;;;;;;5072323;28;20020;-79
2022/03/11 11:54:39;;;;;;;18.13;9.50;;;13.60;88.10;;;;;;5072189;28;20258;-79
2022/03/11 11:57:07;;;;;;;22.60;11.60;;;13.60;87.40;;;;;;5072529;28;20028;-80
2022/03/11 11:59:38;;;;;;;15.35;8.88;;;13.70;86.80;;;;;;5072220;28;20024;-79
2022/03/11 12:02:22;;;;;;;;;;;13.80;87.50;;;;;;5072276;28;20051;-78
2022/03/11 12:04:47;;;;;;;16.00;10.48;;;13.80;88.10;;;;;;5072492;28;20769;-79
2022/03/11 12:07:15;;;;;;;1999.90;999.90;;;14.00;86.30;;;;;;5076180;28;20134;-81
2022/03/11 12:09:48;;;;;;;16.13;11.43;;;14.00;87.10;;;;;;5078962;28;20061;-79
2022/03/11 12:12:30;;;;;;;14.18;10.27;;;14.00;86.90;;;;;;5071675;28;20523;-78
2022/03/11 12:15:04;;;;;;;14.32;10.60;;;13.90;87.30;;;;;;5072110;28;20399;-77
2022/03/11 12:17:37;;;;;;;19.05;11.38;;;14.10;86.20;;;;;;5071867;28;20024;-75
2022/03/11 12:20:20;;;;;;;18.85;11.23;;;14.20;86.20;;;;;;5071700;28;20025;-75
2022/03/11 12:22:54;;;;;;;14.30;6.55;;;14.20;87.20;;;;;;5072008;28;20100;-74
2022/03/11 12:25:25;;;;;;;1999.90;999.90;;;14.30;86.00;;;;;;5072123;28;20028;-74
2022/03/11 12:27:59;;;;;;;1999.90;999.90;;;14.30;85.70;;;;;;5071880;28;20037;-76
2022/03/11 12:30:29;;;;;;;1999.90;999.90;;;14.40;86.20;;;;;;5071618;28;20025;-75
2022/03/11 12:32:55;;;;;;;1999.90;999.90;;;14.40;85.10;;;;;;5072072;28;20043;-75
2022/03/11 12:35:23;;;;;;;1999.90;999.90;;;14.50;85.80;;;;;;5071415;28;20380;-76
2022/03/11 12:37:48;;;;;;;35.83;32.28;;;14.50;84.90;;;;;;5073479;28;20033;-76
2022/03/11 12:40:14;;;;;;;30.92;27.48;;;14.50;85.40;;;;;;5071763;28;20036;-75
2022/03/11 12:42:44;;;;;;;36.67;27.17;;;14.60;83.80;;;;;;5071772;28;20056;-74